Time;durP1;ratioP1;P1;durP2;ratioP2;P2;SDS_P1;SDS_P2;PMS_P1;PMS_P2;Temp;Humidity;BMP_temperature;BMP_pressure;BME280_temperature;BME280_humidity;BME280_pressure;Samples;Min_cycle;Max_cycle;Signal;HPM_P1;HPM_P2
2022/02/25 00:00:21;;;;;;;24.77;11.00;;;-0.90;99.90;;;;;;4158432;28;20274;-65
2022/02/25 00:02:22;;;;;;;24.40;10.53;;;-1.00;99.90;;;;;;4157763;28;20329;-55
2022/02/25 00:04:23;;;;;;;23.30;11.00;;;-1.00;99.90;;;;;;4158011;28;20328;-53
2022/02/25 00:06:24;;;;;;;24.83;10.47;;;-1.00;99.90;;;;;;4166836;28;20270;-67
2022/02/25 00:08:25;;;;;;;21.60;9.90;;;-1.00;99.90;;;;;;4177501;28;20270;-43
2022/02/25 00:10:27;;;;;;;23.87;10.30;;;-1.00;99.90;;;;;;4163969;28;20270;-66
2022/02/25 00:12:28;;;;;;;23.57;10.37;;;-1.00;99.90;;;;;;4161226;28;20334;-48
2022/02/25 00:14:29;;;;;;;18.83;9.77;;;-1.00;99.90;;;;;;4170740;28;20305;-66
2022/02/25 00:16:30;;;;;;;18.87;9.40;;;-1.00;99.90;;;;;;4174918;28;20327;-50
2022/02/25 00:18:31;;;;;;;22.80;10.50;;;-0.90;99.90;;;;;;4177348;28;20823;-65
2022/02/25 00:20:32;;;;;;;24.10;9.87;;;-1.00;99.90;;;;;;4177896;28;20316;-65
2022/02/25 00:22:34;;;;;;;23.90;10.70;;;-1.00;99.90;;;;;;4176918;28;20262;-65
2022/02/25 00:24:35;;;;;;;19.93;9.77;;;-1.00;99.90;;;;;;4177236;28;20343;-56
2022/02/25 00:26:36;;;;;;;20.33;9.03;;;-1.00;99.90;;;;;;4176779;28;20262;-65
2022/02/25 00:28:37;;;;;;;26.00;11.27;;;-1.00;99.90;;;;;;4173699;28;20281;-53
2022/02/25 00:30:38;;;;;;;23.87;9.83;;;-1.10;99.90;;;;;;4173723;28;20289;-60
2022/02/25 00:32:40;;;;;;;24.87;10.00;;;-1.00;99.90;;;;;;4176080;28;20300;-73
2022/02/25 00:34:41;;;;;;;18.30;8.87;;;-1.00;99.90;;;;;;4174123;28;20375;-62
2022/02/25 00:36:43;;;;;;;28.43;10.70;;;-1.00;99.90;;;;;;4175045;28;20623;-56
2022/02/25 00:38:44;;;;;;;23.53;10.37;;;-1.00;99.90;;;;;;4175235;28;20355;-59
2022/02/25 00:40:46;;;;;;;28.33;10.83;;;-1.10;99.90;;;;;;4159840;28;20329;-45
2022/02/25 00:42:47;;;;;;;28.70;11.53;;;-1.10;99.90;;;;;;4160562;28;20279;-66
2022/02/25 00:44:49;;;;;;;23.87;10.07;;;-1.10;99.90;;;;;;4158751;28;20262;-66
2022/02/25 00:46:50;;;;;;;20.87;9.80;;;-1.10;99.90;;;;;;4159811;28;21082;-63
2022/02/25 00:48:51;;;;;;;22.10;9.93;;;-1.20;99.90;;;;;;4158889;28;20271;-56
2022/02/25 00:50:52;;;;;;;25.87;10.67;;;-1.20;99.90;;;;;;4160794;28;20324;-41
2022/02/25 00:52:54;;;;;;;22.40;9.17;;;-1.30;99.90;;;;;;4160988;28;20305;-40
2022/02/25 00:54:55;;;;;;;23.47;9.93;;;-1.30;99.90;;;;;;4160043;28;20743;-70
2022/02/25 00:56:56;;;;;;;20.93;9.70;;;-1.30;99.90;;;;;;4161003;28;20270;-47
2022/02/25 00:58:57;;;;;;;22.43;9.70;;;-1.40;99.90;;;;;;4141434;28;21008;-54
2022/02/25 01:00:58;;;;;;;20.80;9.80;;;-1.50;99.90;;;;;;4160108;28;20282;-61
2022/02/25 01:03:00;;;;;;;22.87;9.20;;;-1.50;99.90;;;;;;4159616;28;20356;-53
2022/02/25 01:05:01;;;;;;;20.57;10.17;;;-1.50;99.90;;;;;;4158902;28;20258;-52
2022/02/25 01:07:02;;;;;;;20.90;10.00;;;-1.50;99.90;;;;;;4159173;28;20262;-51
2022/02/25 01:09:03;;;;;;;27.43;11.47;;;-1.50;99.90;;;;;;4158859;28;20324;-47
2022/02/25 01:11:04;;;;;;;20.97;9.80;;;-1.50;99.90;;;;;;4159751;28;20255;-57
2022/02/25 01:13:06;;;;;;;23.10;9.33;;;-1.50;99.90;;;;;;4159219;28;20298;-51
2022/02/25 01:17:18;;;;;;;;;;;-1.50;99.90;;;;;;4290280;23;20861;-56
2022/02/25 01:19:19;;;;;;;;;;;-1.60;99.90;;;;;;4173762;28;19928;-56
2022/02/25 01:21:20;;;;;;;20.35;9.05;;;-1.60;99.90;;;;;;4174047;28;19909;-59
2022/02/25 01:23:21;;;;;;;18.77;9.57;;;-1.50;99.90;;;;;;4172779;28;20033;-54
2022/02/25 01:25:22;;;;;;;23.80;10.10;;;-1.60;99.90;;;;;;4174805;28;20340;-58
2022/02/25 01:27:24;;;;;;;19.20;9.33;;;-1.50;99.90;;;;;;4173654;28;20270;-56
2022/02/25 01:29:25;;;;;;;24.33;10.47;;;-1.60;99.90;;;;;;4176831;28;20320;-51
2022/02/25 01:31:26;;;;;;;20.80;9.40;;;-1.60;99.90;;;;;;4157499;28;20317;-55
2022/02/25 01:33:27;;;;;;;23.87;9.97;;;-1.60;99.90;;;;;;4157942;28;20263;-40
2022/02/25 01:35:28;;;;;;;20.53;8.97;;;-1.70;99.90;;;;;;4176259;28;20699;-53
2022/02/25 01:37:30;;;;;;;26.93;8.97;;;-1.70;99.90;;;;;;4175878;28;20262;-58
2022/02/25 01:39:32;;;;;;;23.03;10.30;;;-1.80;99.90;;;;;;4176617;28;20740;-56
2022/02/25 01:41:33;;;;;;;18.97;8.87;;;-1.80;99.90;;;;;;4175539;28;20274;-65
2022/02/25 01:43:34;;;;;;;24.23;10.23;;;-1.90;99.90;;;;;;4176869;28;20278;-52
2022/02/25 01:45:36;;;;;;;18.13;9.33;;;-1.90;99.90;;;;;;4177074;28;20320;-44
2022/02/25 01:47:37;;;;;;;25.00;9.53;;;-1.90;99.90;;;;;;4176508;28;20262;-58
2022/02/25 01:49:38;;;;;;;23.43;10.43;;;-1.90;99.90;;;;;;4175428;28;20332;-41
2022/02/25 01:51:40;;;;;;;18.43;10.10;;;-1.90;99.90;;;;;;4177015;28;20262;-53
2022/02/25 01:53:41;;;;;;;26.20;10.03;;;-1.90;99.90;;;;;;4176991;28;20320;-55
2022/02/25 01:55:42;;;;;;;20.07;9.63;;;-1.90;99.90;;;;;;4159857;28;20317;-55
2022/02/25 01:57:43;;;;;;;25.90;9.70;;;-1.80;99.90;;;;;;4176356;28;21108;-41
2022/02/25 01:59:45;;;;;;;24.93;9.77;;;-1.80;99.90;;;;;;4176652;28;21111;-47
2022/02/25 02:01:46;;;;;;;20.20;10.27;;;-1.80;99.90;;;;;;4177130;28;20289;-57
2022/02/25 02:03:47;;;;;;;17.77;9.40;;;-1.70;99.90;;;;;;4176554;28;20262;-58
2022/02/25 02:05:48;;;;;;;29.30;10.80;;;-1.70;99.90;;;;;;4160359;28;20297;-52
2022/02/25 02:07:50;;;;;;;22.27;10.40;;;-1.80;99.90;;;;;;4177028;28;20615;-49
2022/02/25 02:09:51;;;;;;;23.23;11.80;;;-1.80;99.90;;;;;;4180123;28;20734;-46
2022/02/25 02:11:54;;;;;;;19.93;10.07;;;-1.80;99.90;;;;;;4175835;28;20274;-52
2022/02/25 02:13:56;;;;;;;24.90;10.40;;;-1.80;99.90;;;;;;4158350;28;20279;-47
2022/02/25 02:15:57;;;;;;;24.13;10.20;;;-1.90;99.90;;;;;;4177173;28;20843;-53
2022/02/25 02:17:58;;;;;;;23.57;10.87;;;-1.90;99.90;;;;;;4176446;28;20286;-60
2022/02/25 02:20:03;;;;;;;24.93;10.73;;;-1.90;99.90;;;;;;4178155;28;20290;-58
2022/02/25 02:22:06;;;;;;;21.77;10.90;;;-1.90;99.90;;;;;;4175995;28;20266;-43
2022/02/25 02:24:08;;;;;;;23.67;10.33;;;-2.00;99.90;;;;;;4177156;28;20327;-50
2022/02/25 02:26:09;;;;;;;27.30;10.93;;;-2.00;99.90;;;;;;4177237;28;20324;-42
2022/02/25 02:28:20;;;;;;;25.40;10.87;;;-2.00;99.90;;;;;;4178841;28;20266;-46
2022/02/25 02:30:21;;;;;;;20.60;11.03;;;-2.00;99.90;;;;;;4175866;28;20335;-54
2022/02/25 02:32:22;;;;;;;21.93;10.97;;;-2.10;99.90;;;;;;4166057;28;20293;-53
2022/02/25 02:34:24;;;;;;;29.07;10.70;;;-2.10;99.90;;;;;;4177965;28;20681;-63
2022/02/25 02:36:25;;;;;;;29.03;11.77;;;-2.10;99.90;;;;;;4173567;28;20760;-55
2022/02/25 02:38:26;;;;;;;29.20;11.53;;;-2.10;99.90;;;;;;4161640;28;20273;-56
2022/02/25 02:40:28;;;;;;;20.63;10.17;;;-2.10;99.90;;;;;;4165863;28;20290;-59
2022/02/25 02:42:29;;;;;;;25.73;11.37;;;-2.10;99.90;;;;;;4177657;28;20740;-61
2022/02/25 02:44:30;;;;;;;22.77;11.37;;;-2.20;99.90;;;;;;4173686;28;20923;-65
2022/02/25 02:46:31;;;;;;;23.70;11.37;;;-2.20;99.90;;;;;;4160835;28;20275;-59
2022/02/25 02:48:34;;;;;;;28.50;12.60;;;-2.20;99.90;;;;;;4160104;28;20385;-50
2022/02/25 02:50:35;;;;;;;37.10;12.43;;;-2.20;99.90;;;;;;4142659;28;20357;-65
2022/02/25 02:54:47;;;;;;;;;;;-2.30;99.90;;;;;;4342703;22;20095;-62
2022/02/25 02:56:48;;;;;;;;;;;-2.30;99.90;;;;;;4186489;28;19908;-56
2022/02/25 02:58:55;;;;;;;28.52;11.80;;;-2.40;99.90;;;;;;4185182;28;19913;-42
2022/02/25 03:00:57;;;;;;;32.90;11.93;;;-2.40;99.90;;;;;;4175154;28;20350;-57
2022/02/25 03:02:58;;;;;;;30.07;12.77;;;-2.50;99.90;;;;;;4177785;28;20323;-75
2022/02/25 03:04:59;;;;;;;29.33;13.07;;;-2.50;99.90;;;;;;4163713;28;20283;-60
2022/02/25 03:07:00;;;;;;;34.30;13.70;;;-2.50;99.90;;;;;;4178164;28;20758;-60
2022/02/25 03:09:01;;;;;;;36.00;13.80;;;-2.50;99.90;;;;;;4178421;28;20741;-60
2022/02/25 03:11:02;;;;;;;29.63;13.73;;;-2.60;99.90;;;;;;4180463;28;20734;-53
2022/02/25 03:13:05;;;;;;;36.77;13.73;;;-2.60;99.90;;;;;;4180950;28;20815;-61
2022/02/25 03:15:07;;;;;;;32.00;13.50;;;-2.70;99.90;;;;;;4181796;28;20282;-40
2022/02/25 03:17:11;;;;;;;38.90;13.30;;;-2.70;99.90;;;;;;4161536;28;20752;-62
2022/02/25 03:19:12;;;;;;;37.87;14.60;;;-2.70;99.90;;;;;;4180814;28;20760;-49
2022/02/25 03:21:13;;;;;;;28.40;12.23;;;-2.70;99.90;;;;;;4164178;28;20308;-61
2022/02/25 03:23:14;;;;;;;32.67;14.10;;;-2.80;99.90;;;;;;4177597;28;20266;-46
2022/02/25 03:25:18;;;;;;;37.77;13.97;;;-2.80;99.90;;;;;;4178188;28;20296;-49
2022/02/25 03:27:19;;;;;;;29.27;14.47;;;-2.70;99.90;;;;;;4178972;28;20297;-64
2022/02/25 03:29:20;;;;;;;36.67;15.13;;;-2.70;99.90;;;;;;4177849;28;20278;-61
2022/02/25 03:31:21;;;;;;;32.37;14.80;;;-2.70;99.90;;;;;;4157505;28;20275;-52
2022/02/25 03:33:22;;;;;;;33.67;14.33;;;-2.70;99.90;;;;;;4176466;28;20266;-53
2022/02/25 03:35:24;;;;;;;30.40;12.80;;;-2.70;99.90;;;;;;4174702;28;20274;-54
2022/02/25 03:37:28;;;;;;;31.73;13.73;;;-2.70;99.90;;;;;;4174396;28;21086;-50
2022/02/25 03:39:29;;;;;;;32.93;14.27;;;-2.70;99.90;;;;;;4176043;28;20335;-57
2022/02/25 03:41:30;;;;;;;26.00;13.53;;;-2.70;99.90;;;;;;4178972;28;20262;-52
2022/02/25 03:43:31;;;;;;;33.37;14.80;;;-2.60;99.90;;;;;;4182187;28;20254;-57
2022/02/25 03:45:32;;;;;;;32.00;12.33;;;-2.60;99.90;;;;;;4197781;28;20283;-48
2022/02/25 03:47:34;;;;;;;31.90;13.60;;;-2.60;99.90;;;;;;4200519;28;20699;-50
2022/02/25 03:49:35;;;;;;;35.77;14.93;;;-2.60;99.90;;;;;;4198617;28;20799;-65
2022/02/25 03:51:36;;;;;;;34.10;14.47;;;-2.60;99.90;;;;;;4197997;28;20262;-81
2022/02/25 03:53:37;;;;;;;39.27;16.43;;;-2.70;99.90;;;;;;4201984;28;20292;-39
2022/02/25 03:55:39;;;;;;;40.33;16.20;;;-2.70;99.90;;;;;;4198429;28;20290;-65
2022/02/25 03:57:40;;;;;;;40.37;16.93;;;-2.70;99.90;;;;;;4199193;28;20339;-59
2022/02/25 03:59:41;;;;;;;42.53;17.13;;;-2.70;99.90;;;;;;4201543;28;20342;-65
2022/02/25 04:01:43;;;;;;;39.47;18.43;;;-2.70;99.90;;;;;;4183663;28;20319;-68
2022/02/25 04:03:44;;;;;;;37.70;17.90;;;-2.70;99.90;;;;;;4180987;28;20262;-61
2022/02/25 04:05:45;;;;;;;36.53;17.50;;;-2.80;99.90;;;;;;4178572;28;20634;-64
2022/02/25 04:07:47;;;;;;;34.80;17.53;;;-2.80;99.90;;;;;;4159709;28;20340;-65
2022/02/25 04:09:49;;;;;;;41.30;18.27;;;-2.80;99.90;;;;;;4176199;28;21042;-64
2022/02/25 04:11:52;;;;;;;39.23;18.90;;;-2.80;99.90;;;;;;4178020;28;20037;-44
2022/02/25 04:13:54;;;;;;;42.53;19.23;;;-2.80;99.90;;;;;;4178004;28;20262;-62
2022/02/25 04:15:55;;;;;;;45.00;19.03;;;-2.90;99.90;;;;;;4177989;28;20270;-59
2022/02/25 04:17:56;;;;;;;50.73;19.53;;;-2.80;99.90;;;;;;4182745;28;20731;-64
2022/02/25 04:19:58;;;;;;;46.47;19.60;;;-2.90;99.90;;;;;;4194150;28;20281;-57
2022/02/25 04:21:59;;;;;;;47.13;20.33;;;-2.90;99.90;;;;;;4177945;28;20286;-47
2022/02/25 04:26:08;;;;;;;48.13;19.53;;;-3.00;99.90;;;;;;4156388;28;20376;-60
2022/02/25 04:28:09;;;;;;;46.03;19.43;;;-3.00;99.90;;;;;;4157281;28;20801;-47
2022/02/25 04:30:11;;;;;;;51.00;19.60;;;-3.00;99.90;;;;;;4158596;28;20321;-53
2022/02/25 04:32:12;;;;;;;37.20;17.70;;;-3.00;99.90;;;;;;4156429;28;20274;-51
2022/02/25 04:34:13;;;;;;;35.22;15.63;;;-3.00;99.90;;;;;;4158102;28;21064;-48
2022/02/25 04:36:14;;;;;;;32.10;14.75;;;-3.00;99.90;;;;;;4157264;28;20075;-66
2022/02/25 04:38:15;;;;;;;25.50;13.35;;;-3.10;99.90;;;;;;4158111;28;20462;-60
2022/02/25 04:40:17;;;;;;;31.47;15.77;;;-3.20;99.90;;;;;;4159914;28;20081;-61
2022/02/25 04:42:18;;;;;;;30.60;13.20;;;-3.30;99.90;;;;;;4163408;28;20278;-48
2022/02/25 04:44:20;;;;;;;34.13;14.73;;;-3.30;99.90;;;;;;4161283;28;20742;-52
2022/02/25 04:46:24;;;;;;;31.73;14.43;;;-3.30;99.90;;;;;;4160064;28;20344;-40
2022/02/25 04:48:26;;;;;;;27.75;13.60;;;-3.30;99.90;;;;;;4160873;28;20029;-52
2022/02/25 04:50:28;;;;;;;30.02;13.32;;;-3.30;99.90;;;;;;4158850;28;20079;-63
2022/02/25 04:52:29;;;;;;;33.35;14.38;;;-3.20;99.90;;;;;;4160872;28;20091;-43
2022/02/25 04:54:30;;;;;;;31.88;14.85;;;-3.30;99.90;;;;;;4160002;28;20033;-57
2022/02/25 04:56:31;;;;;;;28.23;13.43;;;-3.30;99.90;;;;;;4160562;28;20123;-46
2022/02/25 04:58:33;;;;;;;31.08;14.35;;;-3.30;99.90;;;;;;4162347;28;20064;-66
2022/02/25 05:00:35;;;;;;;37.65;13.80;;;-3.40;99.90;;;;;;4159813;28;20041;-50
2022/02/25 05:02:38;;;;;;;35.10;15.55;;;-3.40;99.90;;;;;;4160602;28;20037;-57
2022/02/25 05:04:39;;;;;;;33.60;15.43;;;-3.40;99.90;;;;;;4162657;28;20051;-49
2022/02/25 05:06:41;;;;;;;29.67;13.75;;;-3.40;99.90;;;;;;4162301;28;20332;-66
2022/02/25 05:08:42;;;;;;;31.70;14.32;;;-3.40;99.90;;;;;;4162991;28;20489;-45
2022/02/25 05:10:43;;;;;;;29.08;13.82;;;-3.40;99.90;;;;;;4159574;28;20033;-61
2022/02/25 05:12:44;;;;;;;28.50;13.85;;;-3.40;99.90;;;;;;4160569;28;20107;-56
2022/02/25 05:21:44;;;;;;;37.80;15.20;;;-3.40;99.90;;;;;;4159328;28;20100;-57
2022/02/25 05:23:45;;;;;;;33.00;15.55;;;-3.30;99.90;;;;;;4159684;28;20589;-65
2022/02/25 05:25:47;;;;;;;39.75;15.90;;;-3.30;99.90;;;;;;4163929;28;20058;-66
2022/02/25 05:27:50;;;;;;;34.53;16.38;;;-3.10;99.90;;;;;;4163342;28;20037;-63
2022/02/25 05:29:51;;;;;;;37.70;17.40;;;-3.00;99.90;;;;;;4160894;28;20087;-49
2022/02/25 05:31:52;;;;;;;40.17;17.10;;;-2.90;99.90;;;;;;4163434;28;20282;-47
2022/02/25 05:33:53;;;;;;;40.33;18.00;;;-2.70;99.90;;;;;;4165509;28;20286;-54
2022/02/25 05:35:55;;;;;;;39.53;17.83;;;-2.60;99.90;;;;;;4139704;28;20391;-57
2022/02/25 05:37:56;;;;;;;40.37;16.50;;;-2.40;99.90;;;;;;4162587;28;20266;-65
2022/02/25 05:39:57;;;;;;;39.90;17.70;;;-2.20;99.90;;;;;;4157098;28;20360;-57
2022/02/25 05:41:58;;;;;;;36.77;16.43;;;-2.00;99.90;;;;;;4143651;28;20267;-64
2022/02/25 05:43:59;;;;;;;34.07;15.93;;;-1.80;99.90;;;;;;4158825;28;20397;-72
2022/02/25 05:46:01;;;;;;;41.53;19.97;;;-1.60;99.90;;;;;;4158527;28;20288;-67
2022/02/25 05:48:02;;;;;;;43.43;17.53;;;-1.50;99.90;;;;;;4149230;28;20342;-50
2022/02/25 05:50:06;;;;;;;35.63;15.97;;;-1.30;99.90;;;;;;4154469;28;20329;-66
2022/02/25 05:52:07;;;;;;;39.10;16.03;;;-1.10;99.90;;;;;;4156453;28;20286;-60
2022/02/25 05:54:08;;;;;;;35.40;15.87;;;-1.00;99.90;;;;;;4151332;28;20270;-52
2022/02/25 05:56:09;;;;;;;36.50;17.57;;;-0.90;99.90;;;;;;4148267;28;20272;-66
2022/02/25 05:58:10;;;;;;;36.60;15.77;;;-0.70;99.90;;;;;;4150480;28;20340;-66
2022/02/25 06:00:13;;;;;;;35.23;15.47;;;-0.40;99.90;;;;;;4157989;28;20302;-43
2022/02/25 06:02:15;;;;;;;47.60;19.47;;;0.00;99.90;;;;;;4158449;28;20274;-55
2022/02/25 06:04:16;;;;;;;39.80;18.30;;;0.30;99.90;;;;;;4158701;28;20305;-61
2022/02/25 06:06:17;;;;;;;27.83;17.67;;;0.70;99.90;;;;;;4158019;28;20638;-60
2022/02/25 06:08:18;;;;;;;36.90;17.80;;;0.90;99.90;;;;;;4159180;28;20282;-61
2022/02/25 06:10:20;;;;;;;30.17;14.90;;;1.10;99.90;;;;;;4366012;22;20236;-67
2022/02/25 06:12:21;;;;;;;28.53;12.87;;;1.30;99.90;;;;;;4185884;28;20815;-67
2022/02/25 06:14:22;;;;;;;25.47;13.60;;;1.70;99.90;;;;;;4174159;28;20796;-67
2022/02/25 06:16:23;;;;;;;25.10;12.07;;;1.90;99.90;;;;;;4189707;28;20319;-59
2022/02/25 06:18:24;;;;;;;22.20;12.23;;;2.20;99.90;;;;;;4190159;28;20893;-54
2022/02/25 06:20:25;;;;;;;22.63;11.83;;;2.50;99.90;;;;;;4179245;28;20294;-61
2022/02/25 06:22:26;;;;;;;22.40;11.13;;;2.80;99.90;;;;;;4175057;28;20315;-52
2022/02/25 06:24:28;;;;;;;28.53;12.90;;;3.00;99.90;;;;;;4176702;28;20319;-56
2022/02/25 06:26:29;;;;;;;29.23;14.50;;;3.10;99.90;;;;;;4182134;28;20277;-53
2022/02/25 06:28:31;;;;;;;26.20;14.10;;;3.10;99.90;;;;;;4187248;28;20339;-67
2022/02/25 06:30:32;;;;;;;28.60;14.37;;;3.30;99.90;;;;;;4184951;28;20277;-55
2022/02/25 06:32:33;;;;;;;27.87;14.53;;;3.60;99.90;;;;;;4165112;28;20283;-57
2022/02/25 06:34:35;;;;;;;25.80;14.17;;;3.90;99.90;;;;;;4177352;28;20623;-64
2022/02/25 06:36:36;;;;;;;25.27;12.67;;;4.10;99.90;;;;;;4179444;28;20320;-66
2022/02/25 06:38:38;;;;;;;23.97;13.43;;;4.30;99.90;;;;;;4177478;28;20021;-66
2022/02/25 06:40:39;;;;;;;25.70;13.57;;;4.60;99.90;;;;;;4161477;28;20293;-66
2022/02/25 06:42:41;;;;;;;29.50;13.60;;;4.70;99.90;;;;;;4193687;28;20033;-68
2022/02/25 06:44:42;;;;;;;27.03;14.50;;;4.80;99.90;;;;;;4192257;28;20810;-68
2022/02/25 06:46:43;;;;;;;25.10;13.63;;;5.00;99.90;;;;;;4174648;28;20064;-55
2022/02/25 06:48:45;;;;;;;26.13;14.57;;;5.00;99.90;;;;;;4184640;28;20036;-68
2022/02/25 06:50:46;;;;;;;24.27;12.60;;;4.90;99.90;;;;;;4187582;28;20033;-69
2022/02/25 06:52:47;;;;;;;29.60;13.40;;;4.80;99.90;;;;;;4180456;28;20098;-54
2022/02/25 06:54:49;;;;;;;22.40;12.27;;;4.60;99.90;;;;;;4180823;28;20016;-65
2022/02/25 06:56:50;;;;;;;22.93;11.87;;;4.50;99.90;;;;;;4189825;28;20078;-69
2022/02/25 06:58:51;;;;;;;22.47;12.13;;;4.60;99.90;;;;;;4181045;28;20021;-67
2022/02/25 07:00:52;;;;;;;25.43;12.87;;;4.60;99.90;;;;;;4165085;28;20501;-69
2022/02/25 07:02:54;;;;;;;23.97;12.13;;;4.70;99.90;;;;;;4179518;28;20067;-54
2022/02/25 07:04:55;;;;;;;23.97;12.10;;;4.50;99.90;;;;;;4191353;28;20043;-52
2022/02/25 07:06:56;;;;;;;29.40;13.53;;;4.00;99.90;;;;;;4169904;28;20336;-54
2022/02/25 07:08:57;;;;;;;26.53;12.77;;;3.30;99.90;;;;;;4175424;28;20250;-65
2022/02/25 07:10:59;;;;;;;23.33;12.73;;;2.50;99.90;;;;;;4270707;22;20321;-54
2022/02/25 07:13:01;;;;;;;23.30;11.03;;;2.30;99.90;;;;;;4175961;28;20277;-69
2022/02/25 07:15:04;;;;;;;21.43;11.37;;;2.10;99.90;;;;;;4188572;28;20262;-69
2022/02/25 07:17:05;;;;;;;26.47;13.00;;;2.40;99.90;;;;;;4172303;28;20286;-67
2022/02/25 07:19:06;;;;;;;35.20;15.93;;;2.30;99.90;;;;;;4188447;28;20430;-63
2022/02/25 07:21:08;;;;;;;31.27;14.83;;;2.40;99.90;;;;;;4183481;28;20293;-54
2022/02/25 07:23:11;;;;;;;25.97;13.10;;;2.30;99.90;;;;;;4178185;28;20322;-54
2022/02/25 07:25:13;;;;;;;29.80;13.47;;;2.30;99.90;;;;;;4190766;28;20327;-50
2022/02/25 07:27:14;;;;;;;31.53;13.87;;;2.20;99.90;;;;;;4173236;28;20363;-67
2022/02/25 07:29:15;;;;;;;27.57;13.60;;;1.80;99.90;;;;;;4175774;28;20957;-66
2022/02/25 07:31:17;;;;;;;32.23;13.63;;;1.50;99.90;;;;;;4171871;28;20832;-62
2022/02/25 07:33:19;;;;;;;29.33;13.37;;;1.30;99.90;;;;;;4189308;28;20324;-57
2022/02/25 07:35:21;;;;;;;31.67;13.83;;;1.30;99.90;;;;;;4189972;28;20311;-51
2022/02/25 07:37:23;;;;;;;26.93;14.43;;;1.30;99.90;;;;;;4191022;28;20266;-63
2022/02/25 07:39:24;;;;;;;27.60;14.90;;;1.40;99.90;;;;;;4187949;28;20324;-62
2022/02/25 07:41:25;;;;;;;34.37;15.60;;;1.50;99.90;;;;;;4188914;28;20358;-48
2022/02/25 07:43:26;;;;;;;28.23;14.83;;;1.60;99.90;;;;;;4188644;28;20265;-56
2022/02/25 07:45:27;;;;;;;32.50;16.10;;;1.70;99.90;;;;;;4179988;28;20331;-64
2022/02/25 07:47:29;;;;;;;30.57;15.37;;;1.90;99.90;;;;;;4190188;28;20265;-50
2022/02/25 07:49:30;;;;;;;32.53;14.10;;;2.10;99.90;;;;;;4190112;28;20636;-83
2022/02/25 07:51:31;;;;;;;35.77;16.50;;;1.90;99.90;;;;;;4190189;28;20307;-62
2022/02/25 07:53:34;;;;;;;32.23;16.77;;;1.80;99.90;;;;;;4189493;28;20339;-51
2022/02/25 07:55:35;;;;;;;33.53;15.77;;;2.10;99.90;;;;;;4191126;28;20331;-49
2022/02/25 07:57:36;;;;;;;30.27;14.07;;;2.20;99.90;;;;;;4189932;28;20398;-86
2022/02/25 07:59:38;;;;;;;29.00;14.37;;;2.50;99.90;;;;;;4190858;28;20354;-64
2022/02/25 08:01:40;;;;;;;29.87;14.20;;;2.60;99.90;;;;;;4185156;28;20297;-65
2022/02/25 08:03:42;;;;;;;30.27;14.63;;;3.10;99.90;;;;;;4191095;28;20291;-60
2022/02/25 08:05:43;;;;;;;29.43;14.13;;;3.60;99.90;;;;;;4188611;28;20667;-61
2022/02/25 08:07:44;;;;;;;27.63;13.67;;;4.00;99.90;;;;;;4190059;28;20277;-55
2022/02/25 08:09:45;;;;;;;27.20;12.97;;;3.90;99.90;;;;;;4189001;28;20318;-50
2022/02/25 08:11:46;;;;;;;25.20;12.67;;;3.80;99.90;;;;;;4172289;28;20310;-61
2022/02/25 08:13:47;;;;;;;26.77;13.40;;;3.60;99.90;;;;;;4181035;28;20329;-48
2022/02/25 08:15:48;;;;;;;24.40;12.50;;;3.50;99.90;;;;;;4189440;28;20270;-60
2022/02/25 08:17:49;;;;;;;25.50;12.53;;;3.60;99.90;;;;;;4183546;28;20274;-44
2022/02/25 08:19:51;;;;;;;33.83;15.70;;;3.40;99.90;;;;;;4179840;28;20266;-58
2022/02/25 08:21:52;;;;;;;26.97;13.90;;;3.30;99.90;;;;;;4182643;28;20327;-89
2022/02/25 08:23:53;;;;;;;31.27;14.40;;;3.60;99.90;;;;;;4176514;28;20308;-48
2022/02/25 08:25:54;;;;;;;32.87;13.47;;;4.00;99.90;;;;;;4190922;28;20265;-52
2022/02/25 08:27:56;;;;;;;36.17;16.53;;;3.90;99.90;;;;;;4174994;28;20324;-47
2022/02/25 08:29:57;;;;;;;36.30;15.23;;;3.80;99.90;;;;;;4172901;28;20312;-47
2022/02/25 08:31:58;;;;;;;30.27;15.20;;;3.60;99.90;;;;;;4173122;28;20270;-53
2022/02/25 08:33:59;;;;;;;32.23;14.70;;;3.50;99.90;;;;;;4174663;28;20352;-84
2022/02/25 08:36:01;;;;;;;32.27;15.50;;;3.80;99.90;;;;;;4171182;28;20856;-51
2022/02/25 08:38:04;;;;;;;26.30;12.87;;;3.60;99.90;;;;;;4173680;28;20277;-70
2022/02/25 08:40:06;;;;;;;26.63;12.97;;;3.30;99.90;;;;;;4172539;28;20278;-57
2022/02/25 08:42:07;;;;;;;24.00;13.90;;;3.20;99.90;;;;;;4174507;28;20297;-40
2022/02/25 08:44:10;;;;;;;29.73;14.63;;;3.40;99.90;;;;;;4172466;28;20285;-66
2022/02/25 08:46:11;;;;;;;37.17;14.67;;;3.60;99.90;;;;;;4174717;28;21056;-53
2022/02/25 08:48:13;;;;;;;29.37;14.63;;;3.70;99.90;;;;;;4183913;28;20297;-81
2022/02/25 08:50:16;;;;;;;33.67;13.87;;;3.60;99.90;;;;;;4173248;28;21053;-56
2022/02/25 08:52:17;;;;;;;29.90;15.17;;;3.40;99.90;;;;;;4173709;28;20270;-71
2022/02/25 08:54:20;;;;;;;24.67;15.13;;;3.50;99.90;;;;;;4173527;28;20262;-65
2022/02/25 08:56:24;;;;;;;27.13;14.57;;;3.70;99.90;;;;;;4367115;23;20362;-73
2022/02/25 08:58:25;;;;;;;33.93;15.20;;;3.80;99.90;;;;;;4172584;28;20258;-59
2022/02/25 09:00:26;;;;;;;26.47;13.43;;;3.90;99.90;;;;;;4175602;28;20606;-43
2022/02/25 09:02:27;;;;;;;30.07;13.23;;;3.90;99.90;;;;;;4190475;28;20273;-62
2022/02/25 09:04:28;;;;;;;31.70;13.57;;;3.80;99.90;;;;;;4187536;28;20700;-77
2022/02/25 09:06:30;;;;;;;23.33;12.70;;;3.80;99.90;;;;;;4174310;28;20266;-54
2022/02/25 09:08:31;;;;;;;31.17;12.83;;;3.60;99.90;;;;;;4172784;28;20254;-63
2022/02/25 09:10:32;;;;;;;26.37;12.63;;;3.70;99.90;;;;;;4174687;28;20262;-57
2022/02/25 09:12:35;;;;;;;25.90;12.47;;;3.70;99.90;;;;;;4174032;28;20262;-68
2022/02/25 09:14:36;;;;;;;23.27;12.10;;;3.70;99.90;;;;;;4185351;28;20270;-52
2022/02/25 09:16:37;;;;;;;19.20;8.87;;;3.60;99.90;;;;;;4177793;28;20315;-64
2022/02/25 09:18:38;;;;;;;17.47;9.67;;;3.60;99.90;;;;;;4186893;28;20825;-66
2022/02/25 09:20:40;;;;;;;23.07;11.17;;;3.60;99.90;;;;;;4178219;28;20293;-56
2022/02/25 09:22:41;;;;;;;23.13;11.77;;;3.60;99.90;;;;;;4176141;28;20274;-60
2022/02/25 09:24:43;;;;;;;18.77;10.50;;;3.80;99.90;;;;;;4171195;28;20587;-58
2022/02/25 09:26:44;;;;;;;18.80;9.30;;;4.10;99.90;;;;;;4172922;28;20312;-59
2022/02/25 09:28:45;;;;;;;22.47;9.73;;;4.20;99.90;;;;;;4171756;28;20266;-68
2022/02/25 09:30:46;;;;;;;22.07;9.27;;;4.30;99.90;;;;;;4178171;28;20273;-66
2022/02/25 09:32:48;;;;;;;22.33;10.90;;;4.20;99.90;;;;;;4181628;28;20354;-51
2022/02/25 09:34:49;;;;;;;21.30;11.50;;;4.30;99.90;;;;;;4175407;28;20277;-67
2022/02/25 09:36:50;;;;;;;24.87;11.83;;;4.50;99.90;;;;;;4179880;28;20295;-56
2022/02/25 09:38:52;;;;;;;19.73;9.50;;;4.50;99.90;;;;;;4187593;28;20333;-60
2022/02/25 09:40:53;;;;;;;19.80;10.73;;;4.70;99.90;;;;;;4179110;28;20349;-62
2022/02/25 09:42:54;;;;;;;19.13;10.90;;;4.90;99.90;;;;;;4173190;28;21112;-60
2022/02/25 09:44:56;;;;;;;18.33;10.30;;;5.00;99.90;;;;;;4174018;28;20274;-72
2022/02/25 09:46:57;;;;;;;26.23;12.10;;;5.10;99.90;;;;;;4172387;28;20320;-70
2022/02/25 09:48:59;;;;;;;19.17;9.60;;;5.10;99.90;;;;;;4175333;28;20266;-72
2022/02/25 09:51:00;;;;;;;18.70;10.13;;;5.20;99.90;;;;;;4175477;28;20332;-64
2022/02/25 09:53:01;;;;;;;18.53;9.83;;;5.30;99.90;;;;;;4176248;28;20270;-86
2022/02/25 09:55:07;;;;;;;18.53;9.00;;;5.20;99.90;;;;;;4191053;23;20289;-47
2022/02/25 09:57:09;;;;;;;19.97;9.73;;;5.10;99.90;;;;;;4190172;28;20666;-83
2022/02/25 09:59:10;;;;;;;24.90;10.40;;;5.00;99.90;;;;;;4192394;28;20668;-75
2022/02/25 10:01:12;;;;;;;20.00;9.83;;;4.90;99.90;;;;;;4191517;28;20692;-61
2022/02/25 10:03:15;;;;;;;19.03;9.13;;;4.90;99.90;;;;;;4191149;28;20818;-65
2022/02/25 10:05:23;;;;;;;19.23;9.87;;;5.00;99.90;;;;;;4339160;23;20402;-65
2022/02/25 10:07:27;;;;;;;20.93;9.30;;;5.10;99.90;;;;;;4206006;28;20337;-73
2022/02/25 10:09:38;;;;;;;19.10;8.63;;;5.20;99.90;;;;;;4173557;28;20348;-62
2022/02/25 10:11:58;;;;;;;19.17;9.80;;;5.40;99.90;;;;;;4197936;28;20273;-64
2022/02/25 10:14:10;;;;;;;17.03;8.53;;;5.60;99.90;;;;;;4205843;28;20265;-75
2022/02/25 10:16:12;;;;;;;16.80;8.50;;;5.70;99.90;;;;;;4191188;28;20761;-73
2022/02/25 10:18:15;;;;;;;17.50;9.47;;;5.90;99.90;;;;;;4192270;28;20281;-51
2022/02/25 10:20:18;;;;;;;15.90;8.97;;;5.90;99.90;;;;;;4188089;28;20346;-58
2022/02/25 10:22:26;;;;;;;18.50;9.20;;;5.80;99.90;;;;;;4199213;28;20350;-51
2022/02/25 10:24:28;;;;;;;17.43;9.00;;;5.80;99.90;;;;;;4196772;28;20261;-74
2022/02/25 10:26:29;;;;;;;17.27;8.80;;;5.80;99.90;;;;;;4206895;28;20269;-70
2022/02/25 10:28:32;;;;;;;19.03;8.30;;;5.70;99.90;;;;;;4208858;28;21117;-69
2022/02/25 10:30:37;;;;;;;16.63;8.47;;;5.70;99.90;;;;;;4208152;28;20270;-48
2022/02/25 10:32:53;;;;;;;21.07;8.87;;;5.60;99.90;;;;;;4192485;28;20334;-75
2022/02/25 10:34:54;;;;;;;27.17;10.10;;;5.50;99.90;;;;;;4191140;28;20270;-49
2022/02/25 10:36:57;;;;;;;19.20;9.40;;;5.50;99.90;;;;;;4192340;28;20319;-74